Time;durP1;ratioP1;P1;durP2;ratioP2;P2;SDS_P1;SDS_P2;PMS_P1;PMS_P2;Temp;Humidity;BMP_temperature;BMP_pressure;BME280_temperature;BME280_humidity;BME280_pressure;Samples;Min_cycle;Max_cycle;Signal;HPM_P1;HPM_P2
2022/06/20 00:08:13;;;;;;;6.25;1.30;;;;;;;14.81;77.92;101099.34;20945439;28;20048;-69
2022/06/20 00:18:35;;;;;;;;;;;;;;;14.79;81.57;101096.84;20943091;28;20050;-69
2022/06/20 00:28:56;;;;;;;7.18;1.50;;;;;;;14.82;75.08;101114.16;20942297;28;20376;-68
2022/06/20 00:39:20;;;;;;;7.93;1.58;;;;;;;14.76;75.44;101146.97;20948073;28;20045;-69
2022/06/20 00:50:06;;;;;;;6.07;1.80;;;;;;;14.70;77.26;101122.97;20953495;28;20052;-69
2022/06/20 01:00:33;;;;;;;9.30;2.00;;;;;;;14.59;76.20;101121.16;20959017;28;20461;-69
2022/06/20 01:11:02;;;;;;;6.00;1.80;;;;;;;14.60;76.11;101116.78;20968506;28;20040;-70
2022/06/20 01:21:29;;;;;;;7.32;1.70;;;;;;;14.49;76.86;101099.22;20935905;28;20058;-69
2022/06/20 01:31:56;;;;;;;7.70;1.83;;;;;;;14.32;77.29;101116.34;20930426;28;20076;-69
2022/06/20 01:42:19;;;;;;;11.25;1.75;;;;;;;14.25;77.48;101128.25;20940378;28;20482;-68
2022/06/20 01:52:43;;;;;;;6.55;1.83;;;;;;;14.31;77.10;101119.91;20936580;28;20439;-69
2022/06/20 02:03:13;;;;;;;8.82;1.80;;;;;;;14.29;77.89;101112.16;20951348;28;20037;-69
2022/06/20 02:13:41;;;;;;;11.98;1.70;;;;;;;14.34;77.97;101098.72;20979812;28;20045;-69
2022/06/20 02:24:09;;;;;;;10.63;2.47;;;;;;;14.25;77.85;101141.38;20935440;28;20493;-69
2022/06/20 02:34:31;;;;;;;6.70;2.38;;;;;;;14.09;78.41;101125.06;20942962;28;20060;-69
2022/06/20 02:44:55;;;;;;;7.03;2.53;;;;;;;13.95;79.55;101114.75;20955903;28;20496;-69
2022/06/20 02:55:18;;;;;;;8.88;2.33;;;;;;;13.86;79.11;101133.78;20946390;28;20043;-69
2022/06/20 03:05:40;;;;;;;7.47;2.08;;;;;;;13.88;79.66;101147.59;20948512;28;20354;-68
2022/06/20 03:16:03;;;;;;;9.40;2.42;;;;;;;13.93;79.58;101175.16;20942476;28;20040;-65
2022/06/20 03:26:26;;;;;;;14.52;2.65;;;;;;;13.90;79.42;101182.41;20954632;28;20056;-67
2022/06/20 03:36:52;;;;;;;7.80;2.60;;;;;;;13.80;81.47;101165.69;20953884;28;20058;-68
2022/06/20 03:47:22;;;;;;;13.52;3.10;;;;;;;13.70;82.58;101175.97;20943413;28;20052;-65
2022/06/20 03:57:44;;;;;;;9.25;2.80;;;;;;;13.64;82.04;101158.06;20950664;28;20139;-65
2022/06/20 04:19:26;;;;;;;14.75;3.20;;;;;;;13.80;84.02;101121.13;20953398;28;20374;-67
2022/06/20 04:30:16;;;;;;;9.98;2.78;;;;;;;13.94;87.42;101115.72;20952605;28;20388;-69
2022/06/20 04:40:52;;;;;;;10.23;2.95;;;;;;;13.83;85.39;101107.78;20950565;28;20055;-67
2022/06/20 04:51:21;;;;;;;8.60;2.60;;;;;;;13.93;84.59;101093.06;20944686;28;20056;-67
2022/06/20 05:01:43;;;;;;;8.75;2.60;;;;;;;13.95;84.47;101089.38;20922799;28;20053;-67
2022/06/20 05:12:11;;;;;;;9.25;2.78;;;;;;;14.07;85.05;101069.28;20945872;28;20059;-67
2022/06/20 05:22:39;;;;;;;9.88;3.00;;;;;;;14.20;83.42;101070.88;20944081;28;20055;-67
2022/06/20 05:33:13;;;;;;;10.38;2.65;;;;;;;14.52;85.63;101062.25;20936126;28;20501;-67
2022/06/20 05:43:36;;;;;;;8.30;2.60;;;;;;;14.62;80.28;101072.88;20939053;28;20056;-67
2022/06/20 05:54:03;;;;;;;9.32;2.65;;;;;;;14.73;80.46;101097.31;20930012;28;20135;-68
2022/06/20 06:04:38;;;;;;;11.90;2.40;;;;;;;14.98;79.32;101091.84;20937003;28;20072;-67
2022/06/20 06:15:29;;;;;;;10.10;1.92;;;;;;;15.29;81.81;101103.41;20943283;28;20040;-67
2022/06/20 06:25:50;;;;;;;6.07;1.60;;;;;;;15.48;73.69;101099.19;20932660;28;20065;-67
2022/06/20 06:36:21;;;;;;;;;;;;;;;15.67;76.51;101102.84;20920374;28;20099;-67
2022/06/20 06:46:48;;;;;;;8.43;2.27;;;;;;;15.94;73.06;101115.53;20934645;28;19924;-66
2022/06/20 06:57:13;;;;;;;6.60;1.95;;;;;;;16.15;70.43;101129.56;20932353;28;20135;-65
2022/06/20 07:07:43;;;;;;;5.95;1.70;;;;;;;16.24;69.85;101144.59;20935557;28;20052;-66
2022/06/20 07:18:13;;;;;;;4.07;1.48;;;;;;;16.30;67.59;101151.97;20936948;28;20043;-66
2022/06/20 07:28:54;;;;;;;4.75;1.83;;;;;;;16.60;67.57;101143.19;20942444;28;20056;-65
2022/06/20 07:39:30;;;;;;;7.97;1.95;;;;;;;17.07;66.29;101132.09;20952413;28;20515;-65
2022/06/20 07:49:56;;;;;;;7.47;2.20;;;;;;;17.24;66.39;101144.63;20943968;28;20045;-65
2022/06/20 08:00:22;;;;;;;5.70;1.98;;;;;;;16.96;67.00;101155.88;20943841;28;20425;-66
2022/06/20 08:10:48;;;;;;;7.13;2.08;;;;;;;17.24;65.97;101138.53;20945129;28;20624;-66
2022/06/20 08:21:17;;;;;;;5.32;1.98;;;;;;;17.62;63.83;101142.13;20946089;28;20056;-65
2022/06/20 08:31:46;;;;;;;8.77;1.88;;;;;;;17.48;64.47;101160.97;20936215;28;20051;-65
2022/06/20 08:42:44;;;;;;;9.60;2.80;;;;;;;16.93;72.10;101182.47;20958325;28;20044;-66
2022/06/20 08:53:27;;;;;;;13.90;3.15;;;;;;;16.18;77.65;101168.75;20933168;28;20048;-66
2022/06/20 09:04:20;;;;;;;12.48;2.90;;;;;;;16.22;77.81;101178.06;20938519;28;20045;-66
2022/06/20 09:15:07;;;;;;;8.60;2.70;;;;;;;16.55;73.04;101161.19;20940475;28;20048;-66
2022/06/20 09:25:47;;;;;;;7.60;2.08;;;;;;;17.27;69.10;101162.81;20938034;28;20556;-66
2022/06/20 09:36:26;;;;;;;7.32;2.15;;;;;;;17.78;66.78;101160.91;20964609;28;20066;-65
2022/06/20 09:46:51;;;;;;;10.25;1.67;;;;;;;17.79;64.80;101162.56;20943464;28;20058;-65
2022/06/20 09:57:23;;;;;;;8.95;1.60;;;;;;;18.20;64.63;101165.81;20950012;28;20747;-66
2022/06/20 10:08:03;;;;;;;5.00;1.30;;;;;;;17.93;61.97;101170.09;20930595;28;20128;-65
2022/06/20 10:18:51;;;;;;;2.75;1.10;;;;;;;18.34;59.44;101191.00;20934141;28;20059;-67
2022/06/20 10:29:25;;;;;;;3.90;0.90;;;;;;;18.59;57.00;101192.09;20940038;28;20052;-66
2022/06/20 10:39:46;;;;;;;4.20;1.27;;;;;;;18.88;59.60;101192.00;20937194;28;20036;-66
2022/06/20 10:50:08;;;;;;;2.95;1.20;;;;;;;18.42;61.31;101192.78;20960178;28;20055;-66
2022/06/20 11:00:35;;;;;;;2.88;1.20;;;;;;;18.40;61.12;101205.28;20948859;28;20051;-66
2022/06/20 11:11:18;;;;;;;9.55;1.33;;;;;;;19.28;57.43;101195.28;20949466;28;20056;-67
2022/06/20 11:21:46;;;;;;;3.35;1.00;;;;;;;20.03;56.44;101208.09;20965045;28;20052;-66
2022/06/20 11:32:38;;;;;;;2.20;0.80;;;;;;;19.92;56.24;101218.06;20965927;28;20508;-65
2022/06/20 11:43:28;;;;;;;2.67;1.10;;;;;;;19.14;57.80;101224.84;20948848;28;20048;-67
2022/06/20 11:54:22;;;;;;;3.22;1.05;;;;;;;19.21;54.63;101226.72;20959410;28;20493;-67
2022/06/20 12:04:53;;;;;;;3.30;0.90;;;;;;;18.82;56.67;101225.13;20950355;28;20079;-67
2022/06/20 12:15:48;;;;;;;2.80;1.10;;;;;;;18.80;57.51;101237.63;20947794;28;20060;-65
2022/06/20 12:26:14;;;;;;;2.97;0.90;;;;;;;19.10;59.58;101234.81;20949174;28;20045;-67
2022/06/20 12:36:59;;;;;;;4.65;1.33;;;;;;;18.95;56.18;101238.88;20941338;28;20059;-65
2022/06/20 12:47:56;;;;;;;4.45;1.10;;;;;;;19.19;55.29;101228.72;20935247;28;20044;-65
2022/06/20 12:58:29;;;;;;;5.55;1.20;;;;;;;19.18;59.59;101237.63;20896929;28;20056;-65
2022/06/20 13:09:20;;;;;;;4.88;1.08;;;;;;;19.12;55.67;101247.94;20934498;28;20756;-66
2022/06/20 13:19:57;;;;;;;3.78;1.10;;;;;;;19.05;53.34;101239.72;20929128;28;20040;-64
2022/06/20 13:30:47;;;;;;;4.03;0.80;;;;;;;19.15;52.10;101261.69;20924414;28;20060;-65
2022/06/20 13:41:30;;;;;;;6.43;1.10;;;;;;;19.00;54.96;101265.72;20930504;28;20040;-64
2022/06/20 13:51:59;;;;;;;3.05;1.10;;;;;;;19.06;57.67;101288.94;20922256;28;20041;-65
2022/06/20 14:02:34;;;;;;;2.60;1.30;;;;;;;18.78;59.92;101297.72;20933466;28;20040;-65
2022/06/20 14:13:02;;;;;;;3.03;1.10;;;;;;;18.94;61.56;101303.25;20923122;28;20142;-65
2022/06/20 14:23:25;;;;;;;6.25;1.30;;;;;;;19.04;61.55;101309.41;20915198;28;20048;-65
2022/06/20 14:33:52;;;;;;;4.10;1.23;;;;;;;18.98;60.17;101317.88;20956560;28;20040;-65
2022/06/20 14:44:35;;;;;;;5.78;1.45;;;;;;;18.88;61.66;101335.56;20974132;28;20048;-66
2022/06/20 14:55:05;;;;;;;1.70;1.23;;;;;;;18.40;64.49;101361.06;20922575;28;20131;-65
2022/06/20 15:05:45;;;;;;;11.73;2.85;;;;;;;18.09;64.76;101341.91;20925307;28;20048;-65
2022/06/20 15:16:24;;;;;;;5.17;1.20;;;;;;;18.30;62.29;101340.06;20934536;28;20581;-65
2022/06/20 15:27:14;;;;;;;3.95;1.13;;;;;;;18.51;62.90;101325.78;20965036;28;20056;-65
2022/06/20 15:37:39;;;;;;;3.53;1.20;;;;;;;18.53;63.83;101334.41;20927307;28;20075;-65
2022/06/20 15:48:36;;;;;;;4.40;1.40;;;;;;;18.37;66.44;101351.75;20932367;28;20048;-66
2022/06/20 15:58:58;;;;;;;3.85;1.40;;;;;;;17.41;70.70;101360.19;20925237;28;20037;-66
2022/06/20 16:09:43;;;;;;;5.63;1.30;;;;;;;17.39;74.41;101367.38;20959240;28;20052;-68
2022/06/20 16:20:06;;;;;;;2.65;1.00;;;;;;;18.47;66.79;101359.56;20935582;28;20045;-66
2022/06/20 16:30:30;;;;;;;3.67;1.20;;;;;;;19.08;65.13;101352.22;20928079;28;20542;-66
2022/06/20 16:41:01;;;;;;;5.65;1.55;;;;;;;19.59;63.46;101348.28;20920012;28;20477;-67
2022/06/20 16:52:00;;;;;;;6.55;1.60;;;;;;;19.58;63.17;101354.56;20935415;28;20048;-65
2022/06/20 17:02:37;;;;;;;5.15;1.50;;;;;;;18.92;64.10;101344.84;20917850;28;20048;-66
2022/06/20 17:13:15;;;;;;;6.22;1.75;;;;;;;18.47;65.61;101346.38;20920334;28;20535;-65
2022/06/20 17:23:51;;;;;;;10.73;2.10;;;;;;;18.53;66.07;101351.09;20927683;28;20052;-65
2022/06/20 17:34:40;;;;;;;6.22;1.60;;;;;;;18.70;66.16;101342.50;20928928;28;20044;-67
2022/06/20 17:45:39;;;;;;;10.10;2.10;;;;;;;18.77;65.47;101346.25;20945221;28;20413;-65
2022/06/20 17:56:16;;;;;;;10.32;1.83;;;;;;;18.52;66.16;101357.34;20916512;28;20040;-65
2022/06/20 18:06:41;;;;;;;7.25;1.58;;;;;;;18.56;65.92;101365.81;20923871;28;20772;-65
2022/06/20 18:17:10;;;;;;;4.03;1.30;;;;;;;18.51;65.52;101368.03;20915199;28;20582;-66
2022/06/20 18:27:47;;;;;;;2.92;1.23;;;;;;;18.23;64.88;101365.31;20938471;28;20048;-65
2022/06/20 18:38:09;;;;;;;6.68;1.75;;;;;;;17.88;66.30;101362.25;20937386;28;20219;-67
2022/06/20 18:48:47;;;;;;;6.28;1.17;;;;;;;17.60;66.27;101369.03;20935705;28;20051;-67
2022/06/20 18:59:21;;;;;;;5.32;1.20;;;;;;;17.48;66.42;101375.34;20941356;28;20032;-66
2022/06/20 19:09:43;;;;;;;4.45;1.38;;;;;;;17.38;66.72;101373.63;20944710;28;20076;-67
2022/06/20 19:20:26;;;;;;;4.75;1.00;;;;;;;17.46;66.85;101381.75;20932722;28;20036;-67
2022/06/20 19:30:54;;;;;;;6.68;1.50;;;;;;;17.34;68.60;101377.47;20958051;28;20052;-67
2022/06/20 19:41:31;;;;;;;7.60;1.45;;;;;;;17.21;69.73;101395.22;20955090;28;20052;-67
2022/06/20 19:51:53;;;;;;;7.72;1.45;;;;;;;16.89;69.19;101407.56;20971932;28;20037;-67
2022/06/20 20:02:18;;;;;;;9.38;1.35;;;;;;;16.74;69.74;101421.97;20934290;28;20072;-67
2022/06/20 20:12:42;;;;;;;6.07;1.38;;;;;;;16.49;69.69;101430.16;20945810;28;20524;-67
2022/06/20 20:23:05;;;;;;;8.10;1.40;;;;;;;16.42;69.67;101423.75;20952689;28;20056;-67
2022/06/20 20:33:50;;;;;;;11.10;1.38;;;;;;;16.29;71.35;101416.06;20950757;28;20801;-67
2022/06/20 20:44:23;;;;;;;7.50;1.50;;;;;;;16.14;71.22;101433.03;20954845;28;20047;-65
2022/06/20 20:54:47;;;;;;;11.07;1.50;;;;;;;15.94;70.64;101425.84;20940808;28;20044;-68
2022/06/20 21:05:15;;;;;;;12.35;1.45;;;;;;;15.87;71.01;101425.50;20937050;28;20079;-67
2022/06/20 21:15:44;;;;;;;14.18;1.60;;;;;;;15.73;71.70;101438.84;20943877;28;20053;-66
2022/06/20 21:26:11;;;;;;;9.25;1.63;;;;;;;15.70;72.19;101448.78;20941241;28;20044;-67
2022/06/20 21:36:40;;;;;;;5.75;1.42;;;;;;;15.47;74.11;101442.63;20940412;28;20048;-66
2022/06/20 21:47:13;;;;;;;6.72;1.38;;;;;;;15.24;72.60;101444.38;20938452;28;20041;-66
2022/06/20 21:57:45;;;;;;;10.57;2.13;;;;;;;15.08;74.66;101444.69;20960543;28;20100;-66
2022/06/20 22:08:13;;;;;;;11.18;1.50;;;;;;;14.90;75.05;101438.16;20934815;28;20037;-66
2022/06/20 22:19:10;;;;;;;12.15;1.73;;;;;;;14.90;76.34;101445.19;20937415;28;20657;-66
2022/06/20 22:30:00;;;;;;;9.65;1.45;;;;;;;14.76;75.49;101443.56;20931056;28;20048;-67
2022/06/20 22:40:26;;;;;;;8.52;1.58;;;;;;;14.63;73.96;101453.25;20938663;28;20512;-67
2022/06/20 22:50:54;;;;;;;6.40;1.40;;;;;;;14.42;74.54;101448.69;20973099;28;20048;-67
2022/06/20 23:36:22;;;;;;;10.38;1.63;;;;;;;13.92;76.00;101463.59;20952865;28;20136;-66
2022/06/20 23:46:44;;;;;;;10.90;1.33;;;;;;;13.77;76.61;101457.59;20941065;28;20509;-68
2022/06/20 23:57:06;;;;;;;11.50;1.80;;;;;;;13.62;77.47;101457.81;20956270;28;20040;-66
